Terminal Aerodrome Forecast
Issued by NWS Corpus Christi, TX

Home | Current Version | Previous Version | Text Only | Print | Product List | Glossary On
Versions: 1 2 3 4 5 6 7 8 9 10 11 12 13 14 15
000
FTUS44 KCRP 281100
TAFCRP
TAF
KCRP 281123Z 2812/0112 05012KT 4SM -RA BR OVC005
     FM281400 01012KT 2SM -SHRA BR OVC004
     FM010100 35012KT 3SM -RA BR OVC006=

USA.gov is the U.S. government's official web portal to all federal, state and local government web resources and services.